createdAt,value
2024-01-11T00:00:48.602Z,36.80
2024-01-11T00:03:16.388Z,36.70
2024-01-11T00:05:44.726Z,36.60
2024-01-11T00:08:12.421Z,37.30
2024-01-11T00:10:39.393Z,36.70
2024-01-11T00:13:06.620Z,36.70
2024-01-11T00:15:35.246Z,36.80
2024-01-11T00:18:02.485Z,36.70
2024-01-11T00:20:29.600Z,36.70
2024-01-11T00:22:56.792Z,36.60
2024-01-11T00:25:24.653Z,36.50
2024-01-11T00:27:52.993Z,36.50
2024-01-11T00:30:20.128Z,36.60
2024-01-11T00:32:48.701Z,36.50
2024-01-11T00:35:15.748Z,36.70
2024-01-11T00:37:42.884Z,36.60
2024-01-11T00:40:10.801Z,36.70
2024-01-11T00:42:40.156Z,36.70
2024-01-11T00:45:07.928Z,36.60
2024-01-11T00:47:36.446Z,36.70
2024-01-11T00:50:05.970Z,37.30
2024-01-11T00:52:33.035Z,36.70
2024-01-11T00:55:00.663Z,36.70
2024-01-11T00:57:27.768Z,36.70
2024-01-11T00:59:54.696Z,36.60
2024-01-11T01:02:22.085Z,36.70
2024-01-11T01:04:49.130Z,36.80
2024-01-11T01:07:17.625Z,36.50
2024-01-11T01:09:44.878Z,36.60
2024-01-11T01:12:11.827Z,36.50
2024-01-11T01:14:38.994Z,36.60
2024-01-11T01:17:06.480Z,36.60
2024-01-11T01:19:34.419Z,36.70
2024-01-11T01:22:01.500Z,36.70
2024-01-11T01:24:29.888Z,36.70
2024-01-11T01:26:56.908Z,36.60
2024-01-11T01:29:24.170Z,36.60
2024-01-11T01:31:52.660Z,36.60
2024-01-11T01:34:19.872Z,36.60
2024-01-11T01:36:46.986Z,36.60
2024-01-11T01:39:14.339Z,36.70
2024-01-11T01:41:44.088Z,36.70
2024-01-11T01:44:11.187Z,36.70
2024-01-11T01:46:39.560Z,36.60
2024-01-11T01:49:07.070Z,36.70
2024-01-11T01:51:34.901Z,36.60
2024-01-11T01:54:04.468Z,36.60
2024-01-11T01:56:32.538Z,36.50
2024-01-11T01:59:02.936Z,36.60
2024-01-11T02:01:30.404Z,36.70
2024-01-11T02:03:58.653Z,36.60
2024-01-11T02:06:30.433Z,36.60
2024-01-11T02:09:01.809Z,36.70
2024-01-11T02:11:29.686Z,36.70
2024-01-11T02:13:56.877Z,37.30
2024-01-11T02:18:53.638Z,36.60
2024-01-11T02:21:23.651Z,36.70
2024-01-11T02:24:03.969Z,36.70
2024-01-11T02:26:31.074Z,36.80
2024-01-11T02:28:58.160Z,36.80
2024-01-11T02:31:26.356Z,36.70
2024-01-11T02:33:54.741Z,36.70
2024-01-11T02:36:22.164Z,36.70
2024-01-11T02:38:51.595Z,36.80
2024-01-11T02:41:20.268Z,36.60
2024-01-11T02:43:48.397Z,36.70
2024-01-11T02:46:16.502Z,36.70
2024-01-11T02:48:43.598Z,36.80
2024-01-11T02:51:10.614Z,36.60
2024-01-11T02:53:37.733Z,36.50
2024-01-11T02:56:05.673Z,36.60
2024-01-11T02:58:34.149Z,36.50
2024-01-11T03:01:02.913Z,36.60
2024-01-11T03:03:31.220Z,36.70
2024-01-11T03:05:58.406Z,36.60
2024-01-11T03:08:25.518Z,36.60
2024-01-11T03:10:52.519Z,36.70
2024-01-11T03:13:19.537Z,36.60
2024-01-11T03:15:47.911Z,36.40
2024-01-11T03:18:15.054Z,36.60
2024-01-11T03:20:42.430Z,36.50
2024-01-11T03:23:09.508Z,36.60
2024-01-11T03:25:36.522Z,36.50
2024-01-11T03:28:03.868Z,36.50
2024-01-11T03:30:31.586Z,36.70
2024-01-11T03:33:01.184Z,36.60
2024-01-11T03:35:28.418Z,36.50
2024-01-11T03:37:56.029Z,36.40
2024-01-11T03:40:23.201Z,36.50
2024-01-11T03:42:50.202Z,36.40
2024-01-11T03:45:20.572Z,36.50
2024-01-11T03:47:47.721Z,36.50
2024-01-11T03:50:16.302Z,36.60
2024-01-11T03:52:43.441Z,36.50
2024-01-11T03:55:10.745Z,36.50
2024-01-11T03:57:37.769Z,36.40
2024-01-11T04:00:10.753Z,36.50
2024-01-11T04:02:39.027Z,36.60
2024-01-11T04:05:07.146Z,36.40
2024-01-11T04:07:35.691Z,36.50
2024-01-11T04:10:02.930Z,36.50
2024-01-11T04:12:29.955Z,36.60
2024-01-11T04:14:56.980Z,36.40
2024-01-11T04:17:24.213Z,36.60
2024-01-11T04:19:51.315Z,36.50
2024-01-11T04:22:18.760Z,36.60
2024-01-11T04:24:47.373Z,36.50
2024-01-11T04:27:14.621Z,36.50
2024-01-11T04:29:41.616Z,36.50
2024-01-11T04:32:09.729Z,36.60
2024-01-11T04:34:36.726Z,36.60
2024-01-11T04:37:04.391Z,36.60
2024-01-11T04:39:33.241Z,36.70
2024-01-11T04:42:02.277Z,36.50
2024-01-11T04:44:29.350Z,36.40
2024-01-11T04:46:56.433Z,36.50
2024-01-11T04:49:23.752Z,36.50
2024-01-11T04:51:50.839Z,36.50
2024-01-11T04:54:17.782Z,36.40
2024-01-11T04:56:45.728Z,36.60
2024-01-11T04:59:14.485Z,36.40
2024-01-11T05:01:42.955Z,36.50
2024-01-11T05:04:10.373Z,36.50
2024-01-11T05:06:37.560Z,36.40
2024-01-11T05:09:06.116Z,36.50
2024-01-11T05:11:33.343Z,36.50
2024-01-11T05:14:01.757Z,36.50
2024-01-11T05:16:30.573Z,36.50
2024-01-11T05:18:58.970Z,36.40
2024-01-11T05:21:27.549Z,36.40
2024-01-11T05:23:54.954Z,36.30
2024-01-11T05:26:22.958Z,36.30
2024-01-11T05:28:49.985Z,36.30
2024-01-11T05:31:18.010Z,36.40
2024-01-11T05:33:48.136Z,36.40
2024-01-11T05:36:15.756Z,36.30
2024-01-11T05:38:42.928Z,36.40
2024-01-11T05:41:10.275Z,36.30
2024-01-11T05:43:38.784Z,36.20
2024-01-11T05:46:06.470Z,36.30
2024-01-11T05:48:33.581Z,36.20
2024-01-11T05:51:02.252Z,36.20
2024-01-11T05:53:29.379Z,36.30
2024-01-11T05:55:56.541Z,36.30
2024-01-11T05:58:23.634Z,36.40
2024-01-11T06:00:50.825Z,36.30
2024-01-11T06:03:17.917Z,36.30
2024-01-11T06:05:45.232Z,36.20
2024-01-11T06:08:13.663Z,36.20
2024-01-11T06:10:40.833Z,36.20
2024-01-11T06:13:07.811Z,36.90
2024-01-11T06:15:34.884Z,36.30
2024-01-11T06:18:02.182Z,36.40
2024-01-11T06:20:30.150Z,36.40
2024-01-11T06:22:57.288Z,36.40
2024-01-11T06:25:25.721Z,36.40
2024-01-11T06:27:52.742Z,36.30
2024-01-11T06:30:19.866Z,37.00
2024-01-11T06:32:47.328Z,36.30
2024-01-11T06:35:14.742Z,36.40
2024-01-11T06:37:41.763Z,36.50
2024-01-11T06:40:09.794Z,36.40
2024-01-11T06:42:38.430Z,36.50
2024-01-11T06:45:06.257Z,36.40
2024-01-11T06:47:33.715Z,36.40
2024-01-11T06:50:01.130Z,36.40
2024-01-11T06:52:28.300Z,36.20
2024-01-11T06:54:56.217Z,36.20
2024-01-11T06:57:23.638Z,36.40
2024-01-11T06:59:52.535Z,36.40
2024-01-11T07:02:19.714Z,36.40
2024-01-11T07:04:47.368Z,36.50
2024-01-11T07:07:14.510Z,37.00
2024-01-11T07:09:41.526Z,36.40
2024-01-11T07:12:08.826Z,36.40
2024-01-11T07:14:36.580Z,36.30
2024-01-11T07:17:05.590Z,36.40
2024-01-11T07:19:33.390Z,36.40
2024-01-11T07:22:00.562Z,36.40
2024-01-11T07:24:27.748Z,36.50
2024-01-11T07:26:54.984Z,36.40
2024-01-11T07:29:22.286Z,36.40
2024-01-11T07:31:49.732Z,36.40
2024-01-11T07:34:19.219Z,36.30
2024-01-11T07:36:46.346Z,36.40
2024-01-11T07:39:14.487Z,36.30
2024-01-11T07:41:41.847Z,36.40
2024-01-11T07:44:09.697Z,36.40
2024-01-11T07:46:42.520Z,36.40
2024-01-11T07:49:18.054Z,36.30
2024-01-11T07:51:45.311Z,36.40
2024-01-11T07:54:12.304Z,36.30
2024-01-11T07:56:39.608Z,36.40
2024-01-11T07:59:06.795Z,36.30
2024-01-11T08:01:36.317Z,36.30
2024-01-11T08:04:05.127Z,36.30
2024-01-11T08:06:33.804Z,36.40
2024-01-11T08:09:00.849Z,36.40
2024-01-11T08:11:30.695Z,36.40
2024-01-11T08:13:58.398Z,36.40
2024-01-11T08:16:25.627Z,36.30
2024-01-11T08:18:52.750Z,36.20
2024-01-11T08:21:20.508Z,36.20
2024-01-11T08:23:50.243Z,36.30
2024-01-11T08:26:20.035Z,36.30
2024-01-11T08:28:47.454Z,36.30
2024-01-11T08:31:14.794Z,36.30
2024-01-11T08:33:42.261Z,36.20
2024-01-11T08:36:09.725Z,36.20
2024-01-11T08:38:37.137Z,36.10
2024-01-11T08:41:05.848Z,36.20
2024-01-11T08:43:32.921Z,36.60
2024-01-11T08:46:00.338Z,36.00
2024-01-11T08:48:28.008Z,36.20
2024-01-11T08:50:55.231Z,36.10
2024-01-11T08:53:22.696Z,36.20
2024-01-11T08:55:49.872Z,36.10
2024-01-11T08:58:18.368Z,36.00
2024-01-11T09:00:45.544Z,36.00
2024-01-11T09:03:15.969Z,35.90
2024-01-11T09:05:43.320Z,35.90
2024-01-11T09:08:10.452Z,35.90
2024-01-11T09:10:37.709Z,36.00
2024-01-11T09:13:04.929Z,36.00
2024-01-11T09:15:33.957Z,35.90
2024-01-11T09:18:04.186Z,36.00
2024-01-11T09:20:31.484Z,35.90
2024-01-11T09:22:58.590Z,35.90
2024-01-11T09:25:28.347Z,35.90
2024-01-11T09:27:55.522Z,35.90
2024-01-11T09:30:22.491Z,35.90
2024-01-11T09:32:51.136Z,35.80
2024-01-11T09:35:18.474Z,35.90
2024-01-11T09:37:47.440Z,35.90
2024-01-11T09:40:14.756Z,36.40
2024-01-11T09:42:42.988Z,35.80
2024-01-11T09:45:13.828Z,35.70
2024-01-11T09:47:41.563Z,35.70
2024-01-11T09:50:11.522Z,35.70
2024-01-11T09:52:40.266Z,35.70
2024-01-11T09:55:07.817Z,35.70
2024-01-11T09:57:38.269Z,35.70
2024-01-11T10:00:12.857Z,35.60
2024-01-11T10:02:41.145Z,35.60
2024-01-11T10:05:11.708Z,35.50
2024-01-11T10:07:39.973Z,35.50
2024-01-11T10:10:08.648Z,35.40
2024-01-11T10:12:35.855Z,35.30
2024-01-11T10:15:07.752Z,35.80
2024-01-11T10:17:35.231Z,35.80
2024-01-11T10:20:03.734Z,35.70
2024-01-11T10:22:32.223Z,35.60
2024-01-11T10:25:12.882Z,35.60
2024-01-11T10:27:43.197Z,35.30
2024-01-11T10:30:11.607Z,35.40
2024-01-11T10:32:39.630Z,35.50
2024-01-11T10:35:07.602Z,35.10
2024-01-11T10:37:39.805Z,35.10
2024-01-11T10:40:12.038Z,35.10
2024-01-11T10:42:43.485Z,35.30
2024-01-11T10:45:15.689Z,35.20
2024-01-11T10:47:53.156Z,34.70
2024-01-11T10:50:20.824Z,34.40
2024-01-11T10:53:05.244Z,34.80
2024-01-11T10:55:34.780Z,34.50
2024-01-11T10:58:03.222Z,34.50
2024-01-11T11:00:31.091Z,34.40
2024-01-11T11:03:01.244Z,34.40
2024-01-11T11:05:31.411Z,34.50
2024-01-11T11:08:03.358Z,34.30
2024-01-11T11:10:32.726Z,34.20
2024-01-11T11:13:01.119Z,34.30
2024-01-11T11:15:29.506Z,34.00
2024-01-11T11:17:57.998Z,33.80
2024-01-11T11:20:25.514Z,33.80
2024-01-11T11:23:06.502Z,34.00
2024-01-11T11:25:37.035Z,34.10
2024-01-11T11:28:07.854Z,34.10
2024-01-11T11:30:41.464Z,34.10
2024-01-11T11:33:12.168Z,33.70
2024-01-11T11:35:40.013Z,33.50
2024-01-11T11:38:08.594Z,33.70
2024-01-11T11:40:40.999Z,33.50
2024-01-11T11:43:08.286Z,33.50
2024-01-11T11:45:36.035Z,33.40
2024-01-11T11:48:41.893Z,33.40
2024-01-11T11:51:10.262Z,32.80
2024-01-11T11:53:40.084Z,32.40
2024-01-11T11:56:08.105Z,32.60
2024-01-11T11:58:35.753Z,32.20
2024-01-11T12:01:04.073Z,32.40
2024-01-11T12:03:38.252Z,32.80
2024-01-11T12:06:06.526Z,32.50
2024-01-11T12:08:34.039Z,32.90
2024-01-11T12:11:02.812Z,32.60
2024-01-11T12:13:32.120Z,32.20
2024-01-11T12:15:59.618Z,32.30
2024-01-11T12:18:27.230Z,32.30
2024-01-11T12:20:56.707Z,32.30
2024-01-11T12:23:23.951Z,32.30
2024-01-11T12:25:51.274Z,32.30
2024-01-11T12:28:19.907Z,32.20
2024-01-11T12:30:47.617Z,32.00
2024-01-11T12:33:15.123Z,31.80
2024-01-11T12:35:42.588Z,31.50
2024-01-11T12:38:12.352Z,31.50
2024-01-11T12:40:39.771Z,31.80
2024-01-11T12:43:09.071Z,31.70
2024-01-11T12:45:37.696Z,31.50
2024-01-11T12:48:08.227Z,31.60
2024-01-11T12:50:36.219Z,31.80
2024-01-11T12:53:17.935Z,31.60
2024-01-11T12:55:51.965Z,31.40
2024-01-11T12:58:27.054Z,31.40
2024-01-11T13:00:58.561Z,31.20
2024-01-11T13:03:28.350Z,31.60
2024-01-11T13:05:55.755Z,31.80
2024-01-11T13:08:22.913Z,31.80
2024-01-11T13:10:50.076Z,32.50
2024-01-11T13:13:17.769Z,31.70
2024-01-11T13:15:46.204Z,32.30
2024-01-11T13:18:18.049Z,31.90
2024-01-11T13:20:45.122Z,32.20
2024-01-11T13:23:16.833Z,32.40
2024-01-11T13:25:45.149Z,32.20
2024-01-11T13:28:12.952Z,32.20
2024-01-11T13:30:40.680Z,32.30
2024-01-11T13:33:16.977Z,32.50
2024-01-11T13:35:46.133Z,32.90
2024-01-11T13:38:14.014Z,32.20
2024-01-11T13:40:41.883Z,32.10
2024-01-11T13:43:11.433Z,32.10
2024-01-11T13:45:38.685Z,33.00
2024-01-11T13:48:07.067Z,32.00
2024-01-11T13:50:34.453Z,32.10
2024-01-11T13:53:03.339Z,31.70
2024-01-11T13:55:39.059Z,32.20
2024-01-11T13:58:07.025Z,32.10
2024-01-11T14:00:34.400Z,32.00
2024-01-11T14:03:02.477Z,32.00
2024-01-11T14:05:29.838Z,32.20
2024-01-11T14:08:00.677Z,32.50
2024-01-11T14:10:29.584Z,31.90
2024-01-11T14:12:56.859Z,32.20
2024-01-11T14:15:27.229Z,32.30
2024-01-11T14:17:54.641Z,32.50
2024-01-11T14:20:22.715Z,31.80
2024-01-11T14:22:51.806Z,31.80
2024-01-11T14:25:21.287Z,31.90
2024-01-11T14:27:50.474Z,31.80
2024-01-11T14:30:18.358Z,32.10
2024-01-11T14:32:46.861Z,32.80
2024-01-11T14:35:14.464Z,32.30
2024-01-11T14:37:43.114Z,32.20
2024-01-11T14:40:13.893Z,32.20
2024-01-11T14:42:42.430Z,32.40
2024-01-11T14:45:13.475Z,32.60
2024-01-11T14:47:40.809Z,31.80
2024-01-11T14:50:11.040Z,32.20
2024-01-11T14:52:40.281Z,32.30
2024-01-11T14:55:08.523Z,32.30
2024-01-11T14:57:37.613Z,32.40
2024-01-11T15:00:05.534Z,32.50
2024-01-11T15:02:37.530Z,32.50
2024-01-11T15:05:05.399Z,31.80
2024-01-11T15:07:33.628Z,32.40
2024-01-11T15:10:00.717Z,32.20
2024-01-11T15:12:29.181Z,32.20
2024-01-11T15:14:58.237Z,32.40
2024-01-11T15:17:25.434Z,32.70
2024-01-11T15:19:54.541Z,32.60
2024-01-11T15:22:21.885Z,32.90
2024-01-11T15:24:54.001Z,32.70
2024-01-11T15:27:22.000Z,32.70
2024-01-11T15:29:49.395Z,32.60
2024-01-11T15:32:16.704Z,33.10
2024-01-11T15:34:43.942Z,32.90
2024-01-11T15:37:15.609Z,33.10
2024-01-11T15:39:42.690Z,33.00
2024-01-11T15:42:10.045Z,33.60
2024-01-11T15:44:39.593Z,33.30
2024-01-11T15:47:07.242Z,33.50
2024-01-11T15:49:35.039Z,33.40
2024-01-11T15:52:02.134Z,33.30
2024-01-11T15:54:33.652Z,33.00
2024-01-11T15:57:00.945Z,33.40
2024-01-11T15:59:28.455Z,33.40
2024-01-11T16:02:03.067Z,33.50
2024-01-11T16:04:33.777Z,33.40
2024-01-11T16:07:01.060Z,33.20
2024-01-11T16:09:28.420Z,33.00
2024-01-11T16:12:02.131Z,33.10
2024-01-11T16:14:32.584Z,33.00
2024-01-11T16:16:59.884Z,33.20
2024-01-11T16:19:27.018Z,32.90
2024-01-11T16:21:54.062Z,33.10
2024-01-11T16:24:21.643Z,33.10
2024-01-11T16:26:48.809Z,33.30
2024-01-11T16:29:17.513Z,33.60
2024-01-11T16:31:45.794Z,33.60
2024-01-11T16:34:14.703Z,33.40
2024-01-11T16:36:42.027Z,33.50
2024-01-11T16:39:12.864Z,33.50
2024-01-11T16:41:41.792Z,33.60
2024-01-11T16:44:09.511Z,33.50
2024-01-11T16:46:37.888Z,33.40
2024-01-11T16:49:04.978Z,33.50
2024-01-11T16:51:32.642Z,33.30
2024-01-11T16:54:00.063Z,33.20
2024-01-11T16:56:27.437Z,33.50
2024-01-11T16:58:54.521Z,33.80
2024-01-11T17:01:22.103Z,34.10
2024-01-11T17:03:50.728Z,33.50
2024-01-11T17:06:19.916Z,33.40
2024-01-11T17:08:47.360Z,33.60
2024-01-11T17:11:14.570Z,33.70
2024-01-11T17:13:42.031Z,34.50
2024-01-11T17:16:09.748Z,34.30
2024-01-11T17:18:37.090Z,34.00
2024-01-11T17:21:08.750Z,33.80
2024-01-11T17:23:35.831Z,33.90
2024-01-11T17:26:05.436Z,33.60
2024-01-11T17:28:33.053Z,33.70
2024-01-11T17:31:00.297Z,33.80
2024-01-11T17:33:28.115Z,33.90
2024-01-11T17:35:58.801Z,33.80
2024-01-11T17:38:27.256Z,33.70
2024-01-11T17:40:54.459Z,33.60
2024-01-11T17:43:21.504Z,33.50
2024-01-11T17:45:52.438Z,33.50
2024-01-11T17:48:19.948Z,33.50
2024-01-11T17:50:47.235Z,33.70
2024-01-11T17:53:16.268Z,33.40
2024-01-11T17:55:45.777Z,33.40
2024-01-11T17:58:12.973Z,33.30
2024-01-11T18:00:41.627Z,33.30
2024-01-11T18:03:09.723Z,33.20
2024-01-11T18:05:38.229Z,33.70
2024-01-11T18:08:06.045Z,33.00
2024-01-11T18:10:37.690Z,32.80
2024-01-11T18:13:06.623Z,32.80
2024-01-11T18:15:33.629Z,32.80
2024-01-11T18:18:01.203Z,32.90
2024-01-11T18:20:28.395Z,32.90
2024-01-11T18:22:55.752Z,32.90
2024-01-11T18:25:23.908Z,33.10
2024-01-11T18:27:52.214Z,32.90
2024-01-11T18:30:22.764Z,33.00
2024-01-11T18:32:49.865Z,33.10
2024-01-11T18:35:17.179Z,33.10
2024-01-11T18:40:16.817Z,33.20
2024-01-11T18:42:44.080Z,34.10
2024-01-11T18:45:12.408Z,33.50
2024-01-11T18:47:40.976Z,33.50
2024-01-11T18:50:09.918Z,33.60
2024-01-11T18:52:40.136Z,33.40
2024-01-11T18:55:16.115Z,33.50
2024-01-11T18:57:45.318Z,33.40
2024-01-11T19:00:12.751Z,33.50
2024-01-11T19:02:41.511Z,33.60
2024-01-11T19:05:10.007Z,33.60
2024-01-11T19:07:37.118Z,33.70
2024-01-11T19:10:07.935Z,33.70
2024-01-11T19:12:35.313Z,33.70
2024-01-11T19:15:02.683Z,33.70
2024-01-11T19:17:30.022Z,33.70
2024-01-11T19:19:58.699Z,33.70
2024-01-11T19:22:26.708Z,33.70
2024-01-11T19:24:54.800Z,33.50
2024-01-11T19:27:22.035Z,33.80
2024-01-11T19:29:49.177Z,33.90
2024-01-11T19:32:16.732Z,33.80
2024-01-11T19:34:43.847Z,33.80
2024-01-11T19:37:17.152Z,33.80
2024-01-11T19:39:48.689Z,33.80
2024-01-11T19:42:15.723Z,33.90
2024-01-11T19:44:42.960Z,33.90
2024-01-11T19:47:11.045Z,33.90
2024-01-11T19:49:39.562Z,34.10
2024-01-11T19:52:07.660Z,33.90
2024-01-11T19:54:36.196Z,34.60
2024-01-11T19:57:03.403Z,33.90
2024-01-11T19:59:30.641Z,33.80
2024-01-11T20:01:59.197Z,33.80
2024-01-11T20:04:27.850Z,33.70
2024-01-11T20:06:57.068Z,34.00
2024-01-11T20:09:26.660Z,33.90
2024-01-11T20:11:55.112Z,33.90
2024-01-11T20:14:22.329Z,33.90
2024-01-11T20:16:49.779Z,33.80
2024-01-11T20:19:16.929Z,33.90
2024-01-11T20:21:43.947Z,33.90
2024-01-11T20:24:11.572Z,33.80
2024-01-11T20:26:38.606Z,33.90
2024-01-11T20:29:07.195Z,33.90
2024-01-11T20:31:34.801Z,34.00
2024-01-11T20:34:03.009Z,33.90
2024-01-11T20:36:30.990Z,33.90
2024-01-11T20:38:58.092Z,34.10
2024-01-11T20:41:25.785Z,34.00
2024-01-11T20:43:53.137Z,34.00
2024-01-11T20:46:22.925Z,33.90
2024-01-11T20:48:50.736Z,34.00
2024-01-11T20:51:21.281Z,34.00
2024-01-11T20:53:49.352Z,34.00
2024-01-11T20:56:16.844Z,34.00
2024-01-11T20:58:44.770Z,34.00
2024-01-11T21:01:13.120Z,34.00
2024-01-11T21:03:44.001Z,34.00
2024-01-11T21:06:14.018Z,34.00
2024-01-11T21:08:41.837Z,33.90
2024-01-11T21:11:09.084Z,33.90
2024-01-11T21:13:36.066Z,33.90
2024-01-11T21:16:05.432Z,33.90
2024-01-11T21:18:34.065Z,33.90
2024-01-11T21:21:03.074Z,33.90
2024-01-11T21:23:30.429Z,34.00
2024-01-11T21:25:57.543Z,34.00
2024-01-11T21:28:24.808Z,34.60
2024-01-11T21:30:51.909Z,33.90
2024-01-11T21:33:19.164Z,33.90
2024-01-11T21:35:46.916Z,34.50
2024-01-11T21:38:15.752Z,33.90
2024-01-11T21:40:42.998Z,33.90
2024-01-11T21:43:10.404Z,33.90
2024-01-11T21:45:37.652Z,33.90
2024-01-11T21:48:05.547Z,33.90
2024-01-11T21:50:32.842Z,33.90
2024-01-11T21:53:00.481Z,33.90
2024-01-11T21:55:30.732Z,33.90
2024-01-11T21:57:57.938Z,33.90
2024-01-11T22:00:24.942Z,33.90
2024-01-11T22:02:52.523Z,33.90
2024-01-11T22:05:22.204Z,34.00
2024-01-11T22:07:50.099Z,34.00
2024-01-11T22:10:17.122Z,33.90
2024-01-11T22:12:46.261Z,33.90
2024-01-11T22:15:13.480Z,33.90
2024-01-11T22:17:40.622Z,33.90
2024-01-11T22:20:08.991Z,34.00
2024-01-11T22:22:37.761Z,34.00
2024-01-11T22:25:05.806Z,34.10
2024-01-11T22:27:32.882Z,34.10
2024-01-11T22:30:01.520Z,34.10
2024-01-11T22:32:28.671Z,34.10
2024-01-11T22:34:55.733Z,34.10
2024-01-11T22:37:22.947Z,34.20
2024-01-11T22:39:50.090Z,34.20
2024-01-11T22:42:17.181Z,34.30
2024-01-11T22:44:45.980Z,34.30
2024-01-11T22:47:14.514Z,34.30
2024-01-11T22:49:42.192Z,34.30
2024-01-11T22:52:09.732Z,34.50
2024-01-11T22:54:36.977Z,34.50
2024-01-11T22:57:04.960Z,34.50
2024-01-11T22:59:35.147Z,34.40
2024-01-11T23:02:02.235Z,34.50
2024-01-11T23:04:32.779Z,34.60
2024-01-11T23:07:00.198Z,34.60
2024-01-11T23:09:27.690Z,34.70
2024-01-11T23:11:56.561Z,34.70
2024-01-11T23:14:23.747Z,34.80
2024-01-11T23:16:51.258Z,34.80
2024-01-11T23:19:18.769Z,34.80
2024-01-11T23:21:47.582Z,35.40
2024-01-11T23:24:15.495Z,34.80
2024-01-11T23:26:42.812Z,35.60
2024-01-11T23:29:10.130Z,35.00
2024-01-11T23:31:37.081Z,35.00
2024-01-11T23:34:05.184Z,35.00
2024-01-11T23:36:32.406Z,35.10
2024-01-11T23:39:03.221Z,35.20
2024-01-11T23:41:30.337Z,35.20
2024-01-11T23:43:58.011Z,35.20
2024-01-11T23:46:25.035Z,35.30
2024-01-11T23:48:52.438Z,35.30
2024-01-11T23:51:19.618Z,35.30
2024-01-11T23:53:46.657Z,35.40
2024-01-11T23:56:15.313Z,35.50
2024-01-11T23:58:42.889Z,35.50
